Terminal Aerodrome Forecast
Issued by NWS

Home | Current Version | Previous Version | Text Only | Print | Product List | Glossary On
Versions: 1 2 3 4 5 6 7 8 9 10 11 12
000
FTUS44 KJAN 211122
TAFGTR
TAF
KGTR 211122Z 2112/2212 10003KT P6SM BKN012
     FM211500 13010KT P6SM SCT030 SCT250
     FM212200 12007KT P6SM VCTS BKN040CB BKN100
     FM220200 12005KT P6SM SCT100 BKN250
     FM220800 13003KT P6SM BKN012=

USA.gov is the U.S. government's official web portal to all federal, state and local government web resources and services.